HQM weather

Bowerman Airport
Hoquiam, Washington, United States

Public forecast

Using degrees Fahrenheit for public forecast. Weather courtesy of forecast.io.

Current aviation weather report (METAR) for Bowerman Airport

Retrieved 2019/10/22 19:53 UTC (18 minutes ago):

KHQM 221953Z AUTO 30013G21KT 10SM FEW024 13/09 A3043 RMK AO2 SLP308 T01330089

Aviation forecast (TAF) for Bowerman Airport

Retrieved 2019/10/22 18:22 UTC (2 hours ago):

TAF KHQM 221720Z 2218/2318 28008KT P6SM SCT040 FM222200 28007KT P6SM FEW250 FM230400 33004KT P6SM SCT050 SCT250 FM230600 34004KT P6SM OVC025 FM231000 VRB03KT P6SM OVC015